sensor_id;sensor_type;location;lat;lon;timestamp;temperature;humidity
28460;DHT22;32528;45.712;9.192;2022-09-09T00:00:17;22.00;93.80
28460;DHT22;32528;45.712;9.192;2022-09-09T00:02:27;22.00;93.80
28460;DHT22;32528;45.712;9.192;2022-09-09T00:04:29;22.00;93.70
28460;DHT22;32528;45.712;9.192;2022-09-09T00:06:36;22.00;94.50
28460;DHT22;32528;45.712;9.192;2022-09-09T00:11:00;22.00;94.00
28460;DHT22;32528;45.712;9.192;2022-09-09T00:13:27;21.90;93.80
28460;DHT22;32528;45.712;9.192;2022-09-09T00:15:43;21.90;94.10
28460;DHT22;32528;45.712;9.192;2022-09-09T00:17:53;21.90;94.10
28460;DHT22;32528;45.712;9.192;2022-09-09T00:20:13;21.80;94.10
28460;DHT22;32528;45.712;9.192;2022-09-09T00:22:23;21.80;94.20
28460;DHT22;32528;45.712;9.192;2022-09-09T00:24:53;21.80;94.20
28460;DHT22;32528;45.712;9.192;2022-09-09T00:27:04;21.70;94.40
28460;DHT22;32528;45.712;9.192;2022-09-09T00:29:28;21.60;94.30
28460;DHT22;32528;45.712;9.192;2022-09-09T00:31:34;21.60;94.50
28460;DHT22;32528;45.712;9.192;2022-09-09T00:33:38;21.60;94.40
28460;DHT22;32528;45.712;9.192;2022-09-09T00:35:44;21.50;94.40
28460;DHT22;32528;45.712;9.192;2022-09-09T00:37:46;21.50;94.50
28460;DHT22;32528;45.712;9.192;2022-09-09T00:39:50;21.50;94.50
28460;DHT22;32528;45.712;9.192;2022-09-09T00:44:32;21.40;94.80
28460;DHT22;32528;45.712;9.192;2022-09-09T00:49:35;21.40;95.00
28460;DHT22;32528;45.712;9.192;2022-09-09T00:51:55;21.30;95.00
28460;DHT22;32528;45.712;9.192;2022-09-09T00:56:35;21.20;95.10
28460;DHT22;32528;45.712;9.192;2022-09-09T01:01:20;21.10;95.60
28460;DHT22;32528;45.712;9.192;2022-09-09T01:03:22;21.10;95.30
28460;DHT22;32528;45.712;9.192;2022-09-09T01:07:47;21.00;95.80
28460;DHT22;32528;45.712;9.192;2022-09-09T01:10:00;21.00;95.70
28460;DHT22;32528;45.712;9.192;2022-09-09T01:14:38;21.00;95.70
28460;DHT22;32528;45.712;9.192;2022-09-09T01:16:40;21.00;95.50
28460;DHT22;32528;45.712;9.192;2022-09-09T01:18:46;21.00;95.40
28460;DHT22;32528;45.712;9.192;2022-09-09T01:21:07;21.00;95.40
28460;DHT22;32528;45.712;9.192;2022-09-09T01:23:37;21.00;95.60
28460;DHT22;32528;45.712;9.192;2022-09-09T01:28:26;20.90;95.70
28460;DHT22;32528;45.712;9.192;2022-09-09T01:30:38;20.90;95.60
28460;DHT22;32528;45.712;9.192;2022-09-09T01:32:45;20.90;95.60
28460;DHT22;32528;45.712;9.192;2022-09-09T01:34:47;20.90;95.60
28460;DHT22;32528;45.712;9.192;2022-09-09T01:37:02;20.90;95.60
28460;DHT22;32528;45.712;9.192;2022-09-09T01:39:07;21.00;95.70
28460;DHT22;32528;45.712;9.192;2022-09-09T01:41:08;21.00;95.60
28460;DHT22;32528;45.712;9.192;2022-09-09T01:43:24;21.00;95.60
28460;DHT22;32528;45.712;9.192;2022-09-09T01:45:26;21.10;95.50
28460;DHT22;32528;45.712;9.192;2022-09-09T01:47:27;21.10;95.50
28460;DHT22;32528;45.712;9.192;2022-09-09T01:49:51;21.10;95.40
28460;DHT22;32528;45.712;9.192;2022-09-09T01:51:57;21.20;95.40
28460;DHT22;32528;45.712;9.192;2022-09-09T01:54:04;21.20;95.30
28460;DHT22;32528;45.712;9.192;2022-09-09T01:58:47;21.20;95.60
28460;DHT22;32528;45.712;9.192;2022-09-09T02:03:27;21.30;95.60
28460;DHT22;32528;45.712;9.192;2022-09-09T02:05:37;21.40;95.40
28460;DHT22;32528;45.712;9.192;2022-09-09T02:07:48;21.40;95.40
28460;DHT22;32528;45.712;9.192;2022-09-09T02:10:20;21.40;95.50
28460;DHT22;32528;45.712;9.192;2022-09-09T02:12:31;21.50;95.60
28460;DHT22;32528;45.712;9.192;2022-09-09T02:14:38;21.50;95.40
28460;DHT22;32528;45.712;9.192;2022-09-09T02:16:46;21.50;95.50
28460;DHT22;32528;45.712;9.192;2022-09-09T02:19:21;21.60;95.30
28460;DHT22;32528;45.712;9.192;2022-09-09T02:21:35;21.70;95.50
28460;DHT22;32528;45.712;9.192;2022-09-09T02:23:40;21.70;95.30
28460;DHT22;32528;45.712;9.192;2022-09-09T02:25:45;21.70;95.30
28460;DHT22;32528;45.712;9.192;2022-09-09T02:27:54;21.70;95.30
28460;DHT22;32528;45.712;9.192;2022-09-09T02:29:57;21.70;95.30
28460;DHT22;32528;45.712;9.192;2022-09-09T02:32:16;21.80;95.10
28460;DHT22;32528;45.712;9.192;2022-09-09T02:34:19;21.90;95.20
28460;DHT22;32528;45.712;9.192;2022-09-09T02:36:24;21.90;95.00
28460;DHT22;32528;45.712;9.192;2022-09-09T02:38:28;21.90;95.20
28460;DHT22;32528;45.712;9.192;2022-09-09T02:40:36;21.90;95.20
28460;DHT22;32528;45.712;9.192;2022-09-09T02:42:44;21.90;95.20
28460;DHT22;32528;45.712;9.192;2022-09-09T02:44:46;21.90;95.20
28460;DHT22;32528;45.712;9.192;2022-09-09T02:49:18;22.00;95.10
28460;DHT22;32528;45.712;9.192;2022-09-09T02:56:29;22.10;94.80
28460;DHT22;32528;45.712;9.192;2022-09-09T02:58:32;22.10;94.90
28460;DHT22;32528;45.712;9.192;2022-09-09T03:00:39;22.10;94.90
28460;DHT22;32528;45.712;9.192;2022-09-09T03:02:41;22.20;94.90
28460;DHT22;32528;45.712;9.192;2022-09-09T03:04:43;22.30;94.80
28460;DHT22;32528;45.712;9.192;2022-09-09T03:06:45;22.30;94.70
28460;DHT22;32528;45.712;9.192;2022-09-09T03:08:53;22.30;94.50
28460;DHT22;32528;45.712;9.192;2022-09-09T03:11:00;22.30;94.40
28460;DHT22;32528;45.712;9.192;2022-09-09T03:13:04;22.30;94.50
28460;DHT22;32528;45.712;9.192;2022-09-09T03:15:09;22.30;94.80
28460;DHT22;32528;45.712;9.192;2022-09-09T03:17:13;22.20;94.90
28460;DHT22;32528;45.712;9.192;2022-09-09T03:19:21;22.10;95.20
28460;DHT22;32528;45.712;9.192;2022-09-09T03:21:23;22.10;95.10
28460;DHT22;32528;45.712;9.192;2022-09-09T03:23:25;22.10;95.10
28460;DHT22;32528;45.712;9.192;2022-09-09T03:25:26;22.10;95.30
28460;DHT22;32528;45.712;9.192;2022-09-09T03:27:29;22.10;95.30
28460;DHT22;32528;45.712;9.192;2022-09-09T03:29:30;22.10;95.30
28460;DHT22;32528;45.712;9.192;2022-09-09T03:31:34;22.00;95.60
28460;DHT22;32528;45.712;9.192;2022-09-09T03:33:38;21.90;95.90
28460;DHT22;32528;45.712;9.192;2022-09-09T03:35:45;21.90;96.40
28460;DHT22;32528;45.712;9.192;2022-09-09T03:37:51;21.80;96.90
28460;DHT22;32528;45.712;9.192;2022-09-09T03:39:53;21.60;99.60
28460;DHT22;32528;45.712;9.192;2022-09-09T03:41:56;20.70;99.90
28460;DHT22;32528;45.712;9.192;2022-09-09T03:43:56;20.50;99.90
28460;DHT22;32528;45.712;9.192;2022-09-09T03:45:59;20.40;99.90
28460;DHT22;32528;45.712;9.192;2022-09-09T03:48:01;20.20;99.90
28460;DHT22;32528;45.712;9.192;2022-09-09T03:50:06;20.00;99.90
28460;DHT22;32528;45.712;9.192;2022-09-09T03:52:11;19.80;99.90
28460;DHT22;32528;45.712;9.192;2022-09-09T03:54:12;19.90;99.90
28460;DHT22;32528;45.712;9.192;2022-09-09T03:56:13;20.00;99.90
28460;DHT22;32528;45.712;9.192;2022-09-09T03:58:15;19.90;99.90
28460;DHT22;32528;45.712;9.192;2022-09-09T04:00:17;20.20;99.90
28460;DHT22;32528;45.712;9.192;2022-09-09T04:02:19;20.20;99.90
28460;DHT22;32528;45.712;9.192;2022-09-09T04:04:20;20.20;99.90
28460;DHT22;32528;45.712;9.192;2022-09-09T04:06:20;20.00;99.90
28460;DHT22;32528;45.712;9.192;2022-09-09T04:08:23;19.90;99.90
28460;DHT22;32528;45.712;9.192;2022-09-09T04:10:26;19.90;99.90
28460;DHT22;32528;45.712;9.192;2022-09-09T04:12:28;19.60;99.90
28460;DHT22;32528;45.712;9.192;2022-09-09T04:14:29;19.40;99.90
28460;DHT22;32528;45.712;9.192;2022-09-09T04:16:32;19.40;99.90
28460;DHT22;32528;45.712;9.192;2022-09-09T04:18:37;19.30;99.90
28460;DHT22;32528;45.712;9.192;2022-09-09T04:20:38;19.20;99.90
28460;DHT22;32528;45.712;9.192;2022-09-09T04:22:39;19.00;99.90
28460;DHT22;32528;45.712;9.192;2022-09-09T04:24:41;18.80;99.90
28460;DHT22;32528;45.712;9.192;2022-09-09T04:26:42;18.90;99.90
28460;DHT22;32528;45.712;9.192;2022-09-09T04:28:43;18.80;99.90
28460;DHT22;32528;45.712;9.192;2022-09-09T04:30:50;18.70;99.90
28460;DHT22;32528;45.712;9.192;2022-09-09T04:32:51;18.60;99.90
28460;DHT22;32528;45.712;9.192;2022-09-09T04:34:52;18.50;99.90
28460;DHT22;32528;45.712;9.192;2022-09-09T04:36:53;18.30;99.90
28460;DHT22;32528;45.712;9.192;2022-09-09T04:38:53;18.60;99.90
28460;DHT22;32528;45.712;9.192;2022-09-09T04:40:54;18.60;99.90
28460;DHT22;32528;45.712;9.192;2022-09-09T04:42:58;18.60;99.90
28460;DHT22;32528;45.712;9.192;2022-09-09T04:44:59;18.70;99.90
28460;DHT22;32528;45.712;9.192;2022-09-09T04:47:00;18.80;99.90
28460;DHT22;32528;45.712;9.192;2022-09-09T04:49:01;18.80;99.90
28460;DHT22;32528;45.712;9.192;2022-09-09T04:51:06;18.80;99.90
28460;DHT22;32528;45.712;9.192;2022-09-09T04:53:10;18.70;99.90
28460;DHT22;32528;45.712;9.192;2022-09-09T04:55:12;18.70;99.90
28460;DHT22;32528;45.712;9.192;2022-09-09T04:57:18;18.70;99.90
28460;DHT22;32528;45.712;9.192;2022-09-09T04:59:20;18.70;99.90
28460;DHT22;32528;45.712;9.192;2022-09-09T05:01:25;18.60;99.90
28460;DHT22;32528;45.712;9.192;2022-09-09T05:03:33;18.60;99.90
28460;DHT22;32528;45.712;9.192;2022-09-09T05:05:35;18.60;99.90
28460;DHT22;32528;45.712;9.192;2022-09-09T05:07:36;18.70;99.90
28460;DHT22;32528;45.712;9.192;2022-09-09T05:09:37;18.60;99.90
28460;DHT22;32528;45.712;9.192;2022-09-09T05:11:38;18.70;99.90
28460;DHT22;32528;45.712;9.192;2022-09-09T05:13:49;18.60;99.90
28460;DHT22;32528;45.712;9.192;2022-09-09T05:15:53;18.70;99.90
28460;DHT22;32528;45.712;9.192;2022-09-09T05:18:01;18.80;99.90
28460;DHT22;32528;45.712;9.192;2022-09-09T05:20:04;18.80;99.90
28460;DHT22;32528;45.712;9.192;2022-09-09T05:22:05;18.80;99.90
28460;DHT22;32528;45.712;9.192;2022-09-09T05:24:16;18.80;99.90
28460;DHT22;32528;45.712;9.192;2022-09-09T05:26:20;18.80;99.90
28460;DHT22;32528;45.712;9.192;2022-09-09T05:28:27;18.90;99.90
28460;DHT22;32528;45.712;9.192;2022-09-09T05:30:28;19.00;99.90
28460;DHT22;32528;45.712;9.192;2022-09-09T05:32:29;19.10;99.90
28460;DHT22;32528;45.712;9.192;2022-09-09T05:34:33;19.10;99.90
28460;DHT22;32528;45.712;9.192;2022-09-09T05:36:36;19.10;99.90
28460;DHT22;32528;45.712;9.192;2022-09-09T05:38:36;19.10;99.90
28460;DHT22;32528;45.712;9.192;2022-09-09T05:40:38;19.10;99.90
28460;DHT22;32528;45.712;9.192;2022-09-09T05:42:40;19.10;99.90
28460;DHT22;32528;45.712;9.192;2022-09-09T05:44:41;19.10;99.90
28460;DHT22;32528;45.712;9.192;2022-09-09T05:46:45;19.10;99.90
28460;DHT22;32528;45.712;9.192;2022-09-09T05:48:48;19.10;99.90
28460;DHT22;32528;45.712;9.192;2022-09-09T05:50:54;19.10;99.90
28460;DHT22;32528;45.712;9.192;2022-09-09T05:52:55;19.10;99.90
28460;DHT22;32528;45.712;9.192;2022-09-09T05:54:56;19.20;99.90
28460;DHT22;32528;45.712;9.192;2022-09-09T05:56:57;19.20;99.90
28460;DHT22;32528;45.712;9.192;2022-09-09T05:58:58;19.20;99.90
28460;DHT22;32528;45.712;9.192;2022-09-09T06:01:08;19.10;99.90
28460;DHT22;32528;45.712;9.192;2022-09-09T06:03:11;19.10;99.90
28460;DHT22;32528;45.712;9.192;2022-09-09T06:05:13;19.20;99.90
28460;DHT22;32528;45.712;9.192;2022-09-09T06:07:15;19.20;99.90
28460;DHT22;32528;45.712;9.192;2022-09-09T06:09:17;19.20;99.90
28460;DHT22;32528;45.712;9.192;2022-09-09T06:11:22;19.20;99.90
28460;DHT22;32528;45.712;9.192;2022-09-09T06:13:23;19.10;99.90
28460;DHT22;32528;45.712;9.192;2022-09-09T06:15:24;19.00;99.90
28460;DHT22;32528;45.712;9.192;2022-09-09T06:17:26;19.00;99.90
28460;DHT22;32528;45.712;9.192;2022-09-09T06:19:27;19.10;99.90
28460;DHT22;32528;45.712;9.192;2022-09-09T06:21:35;19.10;99.90
28460;DHT22;32528;45.712;9.192;2022-09-09T06:23:41;19.00;99.90
28460;DHT22;32528;45.712;9.192;2022-09-09T06:25:42;19.10;99.90
28460;DHT22;32528;45.712;9.192;2022-09-09T06:27:43;19.10;99.90
28460;DHT22;32528;45.712;9.192;2022-09-09T06:29:48;19.20;99.90
28460;DHT22;32528;45.712;9.192;2022-09-09T06:31:50;19.30;99.90
28460;DHT22;32528;45.712;9.192;2022-09-09T06:33:55;19.30;99.90
28460;DHT22;32528;45.712;9.192;2022-09-09T06:35:58;19.30;99.90
28460;DHT22;32528;45.712;9.192;2022-09-09T06:37:59;19.20;99.90
28460;DHT22;32528;45.712;9.192;2022-09-09T06:40:01;19.30;99.90
28460;DHT22;32528;45.712;9.192;2022-09-09T06:42:02;19.40;99.90
28460;DHT22;32528;45.712;9.192;2022-09-09T06:44:30;19.50;99.90
28460;DHT22;32528;45.712;9.192;2022-09-09T06:46:32;19.50;99.90
28460;DHT22;32528;45.712;9.192;2022-09-09T06:48:35;19.60;99.90
28460;DHT22;32528;45.712;9.192;2022-09-09T06:50:36;19.60;99.90
28460;DHT22;32528;45.712;9.192;2022-09-09T06:52:38;19.70;99.90
28460;DHT22;32528;45.712;9.192;2022-09-09T06:54:39;19.90;99.90
28460;DHT22;32528;45.712;9.192;2022-09-09T06:56:41;20.00;99.90
28460;DHT22;32528;45.712;9.192;2022-09-09T06:58:47;20.10;99.90
28460;DHT22;32528;45.712;9.192;2022-09-09T07:01:06;20.20;99.90
28460;DHT22;32528;45.712;9.192;2022-09-09T07:03:10;20.30;99.90
28460;DHT22;32528;45.712;9.192;2022-09-09T07:05:11;20.30;99.90
28460;DHT22;32528;45.712;9.192;2022-09-09T07:07:14;20.40;99.90
28460;DHT22;32528;45.712;9.192;2022-09-09T07:09:16;20.30;99.90
28460;DHT22;32528;45.712;9.192;2022-09-09T07:11:21;20.30;99.90
28460;DHT22;32528;45.712;9.192;2022-09-09T07:13:25;20.30;99.90
28460;DHT22;32528;45.712;9.192;2022-09-09T07:15:29;20.50;99.90
28460;DHT22;32528;45.712;9.192;2022-09-09T07:17:29;20.50;99.90
28460;DHT22;32528;45.712;9.192;2022-09-09T07:19:34;20.60;99.90
28460;DHT22;32528;45.712;9.192;2022-09-09T07:21:37;20.60;99.90
28460;DHT22;32528;45.712;9.192;2022-09-09T07:23:39;20.70;99.90
28460;DHT22;32528;45.712;9.192;2022-09-09T07:25:45;20.80;99.90
28460;DHT22;32528;45.712;9.192;2022-09-09T07:27:46;20.80;99.90
28460;DHT22;32528;45.712;9.192;2022-09-09T07:29:47;20.80;99.90
28460;DHT22;32528;45.712;9.192;2022-09-09T07:31:48;20.80;99.90
28460;DHT22;32528;45.712;9.192;2022-09-09T07:33:53;20.90;99.90
28460;DHT22;32528;45.712;9.192;2022-09-09T07:36:03;21.00;99.90
28460;DHT22;32528;45.712;9.192;2022-09-09T07:38:04;21.10;99.90
28460;DHT22;32528;45.712;9.192;2022-09-09T07:40:08;21.20;99.90
28460;DHT22;32528;45.712;9.192;2022-09-09T07:42:09;21.30;99.90
28460;DHT22;32528;45.712;9.192;2022-09-09T07:44:14;21.40;99.90
28460;DHT22;32528;45.712;9.192;2022-09-09T07:46:19;21.60;99.90
28460;DHT22;32528;45.712;9.192;2022-09-09T07:48:20;21.80;99.90
28460;DHT22;32528;45.712;9.192;2022-09-09T07:50:21;21.90;99.90
28460;DHT22;32528;45.712;9.192;2022-09-09T07:52:22;21.90;99.90
28460;DHT22;32528;45.712;9.192;2022-09-09T07:54:28;21.80;99.90
28460;DHT22;32528;45.712;9.192;2022-09-09T07:56:30;21.70;99.90
28460;DHT22;32528;45.712;9.192;2022-09-09T07:58:32;21.60;99.90
28460;DHT22;32528;45.712;9.192;2022-09-09T08:00:32;21.50;99.90
28460;DHT22;32528;45.712;9.192;2022-09-09T08:02:34;21.60;99.90
28460;DHT22;32528;45.712;9.192;2022-09-09T08:04:35;21.70;99.90
28460;DHT22;32528;45.712;9.192;2022-09-09T08:06:39;21.80;99.90
28460;DHT22;32528;45.712;9.192;2022-09-09T08:08:41;21.90;99.90
28460;DHT22;32528;45.712;9.192;2022-09-09T08:10:43;22.00;99.90
28460;DHT22;32528;45.712;9.192;2022-09-09T08:12:44;22.00;99.90
28460;DHT22;32528;45.712;9.192;2022-09-09T08:14:46;22.10;99.90
28460;DHT22;32528;45.712;9.192;2022-09-09T08:16:49;22.30;99.70
28460;DHT22;32528;45.712;9.192;2022-09-09T08:18:54;22.40;98.20
28460;DHT22;32528;45.712;9.192;2022-09-09T08:20:55;22.40;98.20
28460;DHT22;32528;45.712;9.192;2022-09-09T08:22:56;22.50;98.60
28460;DHT22;32528;45.712;9.192;2022-09-09T08:24:57;22.70;97.60
28460;DHT22;32528;45.712;9.192;2022-09-09T08:26:58;22.80;98.60
28460;DHT22;32528;45.712;9.192;2022-09-09T08:29:00;22.70;98.70
28460;DHT22;32528;45.712;9.192;2022-09-09T08:31:16;22.90;99.10
28460;DHT22;32528;45.712;9.192;2022-09-09T08:33:18;22.90;96.30
28460;DHT22;32528;45.712;9.192;2022-09-09T08:35:19;23.00;97.40
28460;DHT22;32528;45.712;9.192;2022-09-09T08:37:22;23.00;96.90
28460;DHT22;32528;45.712;9.192;2022-09-09T08:39:23;23.00;97.20
28460;DHT22;32528;45.712;9.192;2022-09-09T08:43:32;23.00;93.60
28460;DHT22;32528;45.712;9.192;2022-09-09T08:45:42;22.90;92.00
28460;DHT22;32528;45.712;9.192;2022-09-09T08:50:28;22.90;91.60
28460;DHT22;32528;45.712;9.192;2022-09-09T08:54:48;23.00;90.10
28460;DHT22;32528;45.712;9.192;2022-09-09T08:56:50;23.00;91.60
28460;DHT22;32528;45.712;9.192;2022-09-09T08:58:53;23.10;90.30
28460;DHT22;32528;45.712;9.192;2022-09-09T09:01:25;23.20;90.60
28460;DHT22;32528;45.712;9.192;2022-09-09T09:08:50;23.50;87.70
28460;DHT22;32528;45.712;9.192;2022-09-09T09:10:54;23.60;86.80
28460;DHT22;32528;45.712;9.192;2022-09-09T09:12:59;23.60;90.20
28460;DHT22;32528;45.712;9.192;2022-09-09T09:15:02;23.60;90.80
28460;DHT22;32528;45.712;9.192;2022-09-09T09:17:13;23.60;90.60
28460;DHT22;32528;45.712;9.192;2022-09-09T09:19:16;23.60;90.30
28460;DHT22;32528;45.712;9.192;2022-09-09T09:21:58;23.60;90.20
28460;DHT22;32528;45.712;9.192;2022-09-09T09:24:01;23.80;85.30
28460;DHT22;32528;45.712;9.192;2022-09-09T09:26:09;24.00;88.10
28460;DHT22;32528;45.712;9.192;2022-09-09T09:28:33;24.10;85.20
28460;DHT22;32528;45.712;9.192;2022-09-09T09:30:42;24.20;87.00
28460;DHT22;32528;45.712;9.192;2022-09-09T09:32:56;24.30;85.60
28460;DHT22;32528;45.712;9.192;2022-09-09T09:34:59;24.40;85.60
28460;DHT22;32528;45.712;9.192;2022-09-09T09:37:23;24.40;85.10
28460;DHT22;32528;45.712;9.192;2022-09-09T09:39:30;24.60;83.00
28460;DHT22;32528;45.712;9.192;2022-09-09T09:41:38;24.60;85.40
28460;DHT22;32528;45.712;9.192;2022-09-09T09:43:41;24.60;83.20
28460;DHT22;32528;45.712;9.192;2022-09-09T09:45:50;24.60;86.20
28460;DHT22;32528;45.712;9.192;2022-09-09T09:48:18;24.60;84.50
28460;DHT22;32528;45.712;9.192;2022-09-09T09:50:19;24.60;79.00
28460;DHT22;32528;45.712;9.192;2022-09-09T09:52:25;24.70;86.60
28460;DHT22;32528;45.712;9.192;2022-09-09T09:54:29;25.00;89.30
28460;DHT22;32528;45.712;9.192;2022-09-09T09:56:34;25.20;88.80
28460;DHT22;32528;45.712;9.192;2022-09-09T10:00:52;25.40;88.40
28460;DHT22;32528;45.712;9.192;2022-09-09T10:02:59;25.60;88.40
28460;DHT22;32528;45.712;9.192;2022-09-09T10:05:06;25.80;88.20
28460;DHT22;32528;45.712;9.192;2022-09-09T10:07:20;25.90;86.80
28460;DHT22;32528;45.712;9.192;2022-09-09T10:11:39;25.90;86.80
28460;DHT22;32528;45.712;9.192;2022-09-09T10:18:45;26.20;84.70
28460;DHT22;32528;45.712;9.192;2022-09-09T10:21:03;26.30;86.50
28460;DHT22;32528;45.712;9.192;2022-09-09T10:23:35;26.40;86.70
28460;DHT22;32528;45.712;9.192;2022-09-09T10:25:54;26.50;85.20
28460;DHT22;32528;45.712;9.192;2022-09-09T10:33:16;26.60;82.60
28460;DHT22;32528;45.712;9.192;2022-09-09T10:35:57;26.50;83.50
28460;DHT22;32528;45.712;9.192;2022-09-09T10:38:20;26.40;82.10
28460;DHT22;32528;45.712;9.192;2022-09-09T10:42:34;26.10;86.70
28460;DHT22;32528;45.712;9.192;2022-09-09T10:44:56;26.20;87.70
28460;DHT22;32528;45.712;9.192;2022-09-09T10:51:56;26.50;85.00
28460;DHT22;32528;45.712;9.192;2022-09-09T10:54:25;26.50;86.20
28460;DHT22;32528;45.712;9.192;2022-09-09T10:56:30;26.60;83.30
28460;DHT22;32528;45.712;9.192;2022-09-09T10:59:00;26.60;86.90
28460;DHT22;32528;45.712;9.192;2022-09-09T11:03:30;26.20;83.50
28460;DHT22;32528;45.712;9.192;2022-09-09T11:06:09;26.30;86.40
28460;DHT22;32528;45.712;9.192;2022-09-09T11:08:18;26.40;86.20
28460;DHT22;32528;45.712;9.192;2022-09-09T11:10:34;26.30;81.70
28460;DHT22;32528;45.712;9.192;2022-09-09T11:12:37;26.30;81.80
28460;DHT22;32528;45.712;9.192;2022-09-09T11:14:43;26.40;85.00
28460;DHT22;32528;45.712;9.192;2022-09-09T11:16:50;26.50;84.80
28460;DHT22;32528;45.712;9.192;2022-09-09T11:19:11;26.70;83.70
28460;DHT22;32528;45.712;9.192;2022-09-09T11:21:23;26.80;82.70
28460;DHT22;32528;45.712;9.192;2022-09-09T11:23:40;26.90;81.50
28460;DHT22;32528;45.712;9.192;2022-09-09T11:25:51;27.10;80.10
28460;DHT22;32528;45.712;9.192;2022-09-09T11:28:46;26.80;83.20
28460;DHT22;32528;45.712;9.192;2022-09-09T11:30:19;26.70;80.60
28460;DHT22;32528;45.712;9.192;2022-09-09T11:41:36;27.30;81.30
28460;DHT22;32528;45.712;9.192;2022-09-09T11:43:45;27.20;79.30
28460;DHT22;32528;45.712;9.192;2022-09-09T11:45:59;27.00;80.00
28460;DHT22;32528;45.712;9.192;2022-09-09T11:48:04;27.00;80.40
28460;DHT22;32528;45.712;9.192;2022-09-09T11:52:25;26.70;80.70
28460;DHT22;32528;45.712;9.192;2022-09-09T11:54:32;26.70;81.00
28460;DHT22;32528;45.712;9.192;2022-09-09T11:56:44;26.80;82.70
28460;DHT22;32528;45.712;9.192;2022-09-09T11:58:59;26.90;80.00
28460;DHT22;32528;45.712;9.192;2022-09-09T12:01:01;26.90;80.60
28460;DHT22;32528;45.712;9.192;2022-09-09T12:03:48;26.90;82.90
28460;DHT22;32528;45.712;9.192;2022-09-09T12:05:51;27.00;79.10
28460;DHT22;32528;45.712;9.192;2022-09-09T12:07:56;27.10;82.10
28460;DHT22;32528;45.712;9.192;2022-09-09T12:12:29;26.80;80.90
28460;DHT22;32528;45.712;9.192;2022-09-09T12:16:41;26.90;81.10
28460;DHT22;32528;45.712;9.192;2022-09-09T12:18:43;27.00;82.80
28460;DHT22;32528;45.712;9.192;2022-09-09T12:21:21;27.20;82.60
28460;DHT22;32528;45.712;9.192;2022-09-09T12:23:37;27.30;76.10
28460;DHT22;32528;45.712;9.192;2022-09-09T12:28:41;27.30;80.10
28460;DHT22;32528;45.712;9.192;2022-09-09T12:30:22;27.20;77.20
28460;DHT22;32528;45.712;9.192;2022-09-09T12:32:27;27.30;80.10
28460;DHT22;32528;45.712;9.192;2022-09-09T12:34:38;27.40;80.30
28460;DHT22;32528;45.712;9.192;2022-09-09T12:36:40;27.40;79.50
28460;DHT22;32528;45.712;9.192;2022-09-09T12:38:42;27.60;79.60
28460;DHT22;32528;45.712;9.192;2022-09-09T12:40:54;27.80;78.60
28460;DHT22;32528;45.712;9.192;2022-09-09T12:42:55;27.90;77.10
28460;DHT22;32528;45.712;9.192;2022-09-09T12:44:58;28.10;79.30
28460;DHT22;32528;45.712;9.192;2022-09-09T12:47:01;28.30;78.20
28460;DHT22;32528;45.712;9.192;2022-09-09T12:49:04;28.40;75.90
28460;DHT22;32528;45.712;9.192;2022-09-09T12:51:28;28.40;76.30
28460;DHT22;32528;45.712;9.192;2022-09-09T12:53:37;28.60;72.50
28460;DHT22;32528;45.712;9.192;2022-09-09T12:55:39;28.70;74.00
28460;DHT22;32528;45.712;9.192;2022-09-09T12:57:49;28.90;74.80
28460;DHT22;32528;45.712;9.192;2022-09-09T12:59:50;28.80;74.90
28460;DHT22;32528;45.712;9.192;2022-09-09T13:01:58;28.80;74.20
28460;DHT22;32528;45.712;9.192;2022-09-09T13:03:59;28.70;70.90
28460;DHT22;32528;45.712;9.192;2022-09-09T13:06:25;28.50;72.90
28460;DHT22;32528;45.712;9.192;2022-09-09T13:08:26;28.20;70.20
28460;DHT22;32528;45.712;9.192;2022-09-09T13:10:28;28.10;72.60
28460;DHT22;32528;45.712;9.192;2022-09-09T13:12:30;27.90;72.10
28460;DHT22;32528;45.712;9.192;2022-09-09T13:14:34;27.80;75.50
28460;DHT22;32528;45.712;9.192;2022-09-09T13:16:38;27.90;74.40
28460;DHT22;32528;45.712;9.192;2022-09-09T13:18:40;28.00;76.50
28460;DHT22;32528;45.712;9.192;2022-09-09T13:20:47;28.10;75.90
28460;DHT22;32528;45.712;9.192;2022-09-09T13:22:49;28.30;73.90
28460;DHT22;32528;45.712;9.192;2022-09-09T13:25:18;28.30;74.90
28460;DHT22;32528;45.712;9.192;2022-09-09T13:27:40;28.40;70.40
28460;DHT22;32528;45.712;9.192;2022-09-09T13:29:51;28.30;71.70
28460;DHT22;32528;45.712;9.192;2022-09-09T13:32:05;28.20;71.80
28460;DHT22;32528;45.712;9.192;2022-09-09T13:34:29;28.30;70.70
28460;DHT22;32528;45.712;9.192;2022-09-09T13:36:32;28.30;70.80
28460;DHT22;32528;45.712;9.192;2022-09-09T13:38:37;28.30;72.70
28460;DHT22;32528;45.712;9.192;2022-09-09T13:40:38;28.20;69.80
28460;DHT22;32528;45.712;9.192;2022-09-09T13:42:41;28.20;73.90
28460;DHT22;32528;45.712;9.192;2022-09-09T13:44:46;28.20;71.70
28460;DHT22;32528;45.712;9.192;2022-09-09T13:46:47;28.10;70.80
28460;DHT22;32528;45.712;9.192;2022-09-09T13:48:58;28.20;72.50
28460;DHT22;32528;45.712;9.192;2022-09-09T13:51:02;28.20;70.60
28460;DHT22;32528;45.712;9.192;2022-09-09T13:53:04;28.20;72.60
28460;DHT22;32528;45.712;9.192;2022-09-09T13:55:05;28.10;71.10
28460;DHT22;32528;45.712;9.192;2022-09-09T13:57:16;28.10;73.90
28460;DHT22;32528;45.712;9.192;2022-09-09T13:59:19;28.30;69.60
28460;DHT22;32528;45.712;9.192;2022-09-09T14:01:24;28.20;71.00
28460;DHT22;32528;45.712;9.192;2022-09-09T14:03:25;28.10;69.40
28460;DHT22;32528;45.712;9.192;2022-09-09T14:05:26;28.20;73.20
28460;DHT22;32528;45.712;9.192;2022-09-09T14:07:27;28.30;72.90
28460;DHT22;32528;45.712;9.192;2022-09-09T14:09:29;28.30;71.30
28460;DHT22;32528;45.712;9.192;2022-09-09T14:11:30;28.40;72.20
28460;DHT22;32528;45.712;9.192;2022-09-09T14:13:30;28.40;71.60
28460;DHT22;32528;45.712;9.192;2022-09-09T14:15:31;28.40;70.80
28460;DHT22;32528;45.712;9.192;2022-09-09T14:17:33;28.50;71.30
28460;DHT22;32528;45.712;9.192;2022-09-09T14:19:34;28.60;70.50
28460;DHT22;32528;45.712;9.192;2022-09-09T14:21:35;28.60;70.70
28460;DHT22;32528;45.712;9.192;2022-09-09T14:23:36;28.60;71.10
28460;DHT22;32528;45.712;9.192;2022-09-09T14:25:42;28.70;70.20
28460;DHT22;32528;45.712;9.192;2022-09-09T14:27:43;28.70;70.10
28460;DHT22;32528;45.712;9.192;2022-09-09T14:29:46;28.70;69.70
28460;DHT22;32528;45.712;9.192;2022-09-09T14:31:47;28.70;70.70
28460;DHT22;32528;45.712;9.192;2022-09-09T14:33:47;28.70;69.00
28460;DHT22;32528;45.712;9.192;2022-09-09T14:35:56;28.80;67.90
28460;DHT22;32528;45.712;9.192;2022-09-09T14:37:57;28.80;66.60
28460;DHT22;32528;45.712;9.192;2022-09-09T14:39:58;28.70;69.20
28460;DHT22;32528;45.712;9.192;2022-09-09T14:41:58;28.80;70.60
28460;DHT22;32528;45.712;9.192;2022-09-09T14:43:59;29.00;69.20
28460;DHT22;32528;45.712;9.192;2022-09-09T14:46:07;29.10;70.00